EZY547T EGAA-EGNM
Flight info
| Callsign | EZY547T |
|---|---|
| Flight time | 0h 45m |
| Altitude | 25000 |
| Route | LISBO L603 PEPOD Q38 GIGTO UQ4 WAL DCT POL |
| Aircraft | A319/M-SDE3FGHIRWY/LB1 |
Departure
| Time | 2026-05-05 18:37 |
|---|---|
| Airport | Belfast International Airport (EGAA) |
Arrival
| Time | 2026-05-05 19:22 |
|---|---|
| Airport | Leeds Bradford Airport (EGNM) |
| Time | Latitude | Longitude | Altitude | Speed | Heading |
|---|---|---|---|---|---|
| 2026-05-05 18:02 | 54.66145 | -6.21379 | 241 ft | 0 kts | 244° |
| 2026-05-05 18:27 | 54.66153 | -6.21349 | 242 ft | 4 kts | 245° |
| 2026-05-05 18:27 | 54.66164 | -6.21306 | 242 ft | 4 kts | 243° |
| 2026-05-05 18:27 | 54.66177 | -6.21278 | 243 ft | 3 kts | 182° |
| 2026-05-05 18:27 | 54.66184 | -6.21277 | 243 ft | 0 kts | 180° |
| 2026-05-05 18:30 | 54.66182 | -6.21277 | 243 ft | 1 kts | 180° |
| 2026-05-05 18:30 | 54.66173 | -6.21278 | 243 ft | 2 kts | 180° |
| 2026-05-05 18:31 | 54.66154 | -6.21277 | 243 ft | 3 kts | 173° |
| 2026-05-05 18:31 | 54.66130 | -6.21260 | 243 ft | 4 kts | 156° |
| 2026-05-05 18:31 | 54.66102 | -6.21239 | 243 ft | 5 kts | 156° |
| 2026-05-05 18:31 | 54.66072 | -6.21216 | 244 ft | 5 kts | 156° |
| 2026-05-05 18:32 | 54.66050 | -6.21179 | 244 ft | 4 kts | 117° |
| 2026-05-05 18:32 | 54.66051 | -6.21137 | 245 ft | 3 kts | 70° |
| 2026-05-05 18:32 | 54.66065 | -6.21091 | 245 ft | 5 kts | 66° |
| 2026-05-05 18:32 | 54.66083 | -6.21020 | 246 ft | 8 kts | 66° |
| 2026-05-05 18:33 | 54.66110 | -6.20919 | 248 ft | 10 kts | 65° |
| 2026-05-05 18:33 | 54.66141 | -6.20806 | 249 ft | 12 kts | 65° |
| 2026-05-05 18:33 | 54.66178 | -6.20667 | 251 ft | 13 kts | 64° |
| 2026-05-05 18:33 | 54.66215 | -6.20531 | 253 ft | 12 kts | 65° |
| 2026-05-05 18:34 | 54.66250 | -6.20399 | 255 ft | 13 kts | 65° |
| 2026-05-05 18:34 | 54.66288 | -6.20260 | 257 ft | 12 kts | 65° |
| 2026-05-05 18:34 | 54.66323 | -6.20129 | 259 ft | 12 kts | 65° |
| 2026-05-05 18:34 | 54.66360 | -6.19993 | 260 ft | 14 kts | 64° |
| 2026-05-05 18:35 | 54.66396 | -6.19848 | 262 ft | 13 kts | 77° |
| 2026-05-05 18:35 | 54.66371 | -6.19719 | 264 ft | 11 kts | 134° |
| 2026-05-05 18:35 | 54.66306 | -6.19655 | 264 ft | 11 kts | 152° |
| 2026-05-05 18:35 | 54.66262 | -6.19677 | 263 ft | 0 kts | 246° |
| 2026-05-05 18:36 | 54.66232 | -6.19794 | 262 ft | 43 kts | 245° |
| 2026-05-05 18:36 | 54.65987 | -6.20696 | 248 ft | 120 kts | 245° |
| 2026-05-05 18:36 | 54.65547 | -6.22314 | 314 ft | 168 kts | 249° |
| 2026-05-05 18:37 | 54.65055 | -6.24119 | 1035 ft | 166 kts | 250° |
| 2026-05-05 18:37 | 54.64579 | -6.25942 | 1741 ft | 173 kts | 251° |
| 2026-05-05 18:37 | 54.63952 | -6.27884 | 2123 ft | 201 kts | 231° |
| 2026-05-05 18:37 | 54.62671 | -6.29243 | 2456 ft | 236 kts | 197° |
| 2026-05-05 18:38 | 54.60949 | -6.29250 | 2960 ft | 263 kts | 164° |
| 2026-05-05 18:38 | 54.59335 | -6.27692 | 3731 ft | 271 kts | 134° |
| 2026-05-05 18:38 | 54.58225 | -6.25094 | 4817 ft | 271 kts | 118° |
| 2026-05-05 18:38 | 54.57341 | -6.22208 | 5812 ft | 274 kts | 116° |
| 2026-05-05 18:39 | 54.56464 | -6.19266 | 6799 ft | 278 kts | 115° |
| 2026-05-05 18:39 | 54.55577 | -6.16281 | 7699 ft | 282 kts | 116° |
| 2026-05-05 18:39 | 54.54607 | -6.13298 | 8552 ft | 290 kts | 122° |
| 2026-05-05 18:39 | 54.53428 | -6.10434 | 9404 ft | 296 kts | 127° |
| 2026-05-05 18:40 | 54.52132 | -6.07636 | 10244 ft | 302 kts | 130° |
| 2026-05-05 18:40 | 54.50710 | -6.04801 | 10663 ft | 323 kts | 133° |
| 2026-05-05 18:40 | 54.49148 | -6.01839 | 10996 ft | 345 kts | 133° |
| 2026-05-05 18:40 | 54.47502 | -5.98668 | 11336 ft | 365 kts | 131° |
| 2026-05-05 18:41 | 54.45828 | -5.95310 | 11981 ft | 373 kts | 130° |
| 2026-05-05 18:41 | 54.44158 | -5.91872 | 12720 ft | 378 kts | 130° |
| 2026-05-05 18:41 | 54.42498 | -5.88424 | 13447 ft | 383 kts | 130° |
| 2026-05-05 18:41 | 54.40785 | -5.84868 | 14144 ft | 388 kts | 130° |
| 2026-05-05 18:42 | 54.39056 | -5.81290 | 14807 ft | 391 kts | 130° |
| 2026-05-05 18:42 | 54.37305 | -5.77684 | 15492 ft | 395 kts | 131° |
| 2026-05-05 18:42 | 54.35534 | -5.74060 | 16153 ft | 398 kts | 131° |
| 2026-05-05 18:42 | 54.33744 | -5.70406 | 16846 ft | 401 kts | 131° |
| 2026-05-05 18:43 | 54.31944 | -5.66737 | 17503 ft | 405 kts | 131° |
| 2026-05-05 18:43 | 54.30117 | -5.63022 | 18153 ft | 409 kts | 131° |
| 2026-05-05 18:43 | 54.28274 | -5.59279 | 18741 ft | 413 kts | 131° |
| 2026-05-05 18:43 | 54.26434 | -5.55480 | 19311 ft | 417 kts | 129° |
| 2026-05-05 18:44 | 54.24664 | -5.51531 | 19888 ft | 420 kts | 127° |
| 2026-05-05 18:44 | 54.22947 | -5.47461 | 20449 ft | 423 kts | 126° |
| 2026-05-05 18:44 | 54.21258 | -5.43326 | 20990 ft | 426 kts | 126° |
| 2026-05-05 18:44 | 54.19562 | -5.39147 | 21520 ft | 430 kts | 126° |
| 2026-05-05 18:45 | 54.17841 | -5.34954 | 22041 ft | 433 kts | 126° |
| 2026-05-05 18:45 | 54.16088 | -5.30753 | 22561 ft | 436 kts | 127° |
| 2026-05-05 18:45 | 54.14312 | -5.26559 | 23068 ft | 438 kts | 127° |
| 2026-05-05 18:45 | 54.12532 | -5.22401 | 23543 ft | 441 kts | 128° |
| 2026-05-05 18:46 | 54.10711 | -5.18167 | 23947 ft | 444 kts | 128° |
| 2026-05-05 18:46 | 54.08880 | -5.13913 | 24356 ft | 447 kts | 128° |
| 2026-05-05 18:46 | 54.07041 | -5.09628 | 24765 ft | 449 kts | 127° |
| 2026-05-05 18:46 | 54.05199 | -5.05327 | 24998 ft | 451 kts | 127° |
| 2026-05-05 18:47 | 54.03339 | -5.00985 | 25054 ft | 459 kts | 127° |
| 2026-05-05 18:47 | 54.01443 | -4.96577 | 25054 ft | 463 kts | 128° |
| 2026-05-05 18:47 | 53.99536 | -4.92162 | 25054 ft | 464 kts | 128° |
| 2026-05-05 18:47 | 53.97624 | -4.87737 | 25054 ft | 465 kts | 128° |
| 2026-05-05 18:48 | 53.95709 | -4.83315 | 25049 ft | 465 kts | 128° |
| 2026-05-05 18:48 | 53.93790 | -4.78894 | 25049 ft | 465 kts | 128° |
| 2026-05-05 18:48 | 53.91870 | -4.74478 | 25049 ft | 465 kts | 128° |
| 2026-05-05 18:48 | 53.89953 | -4.70073 | 25037 ft | 465 kts | 128° |
| 2026-05-05 18:49 | 53.88031 | -4.65661 | 25051 ft | 465 kts | 128° |
| 2026-05-05 18:49 | 53.86109 | -4.61258 | 25051 ft | 465 kts | 128° |
| 2026-05-05 18:49 | 53.84187 | -4.56863 | 25047 ft | 465 kts | 128° |
| 2026-05-05 18:49 | 53.82261 | -4.52465 | 25047 ft | 464 kts | 128° |
| 2026-05-05 18:50 | 53.80364 | -4.48133 | 25043 ft | 464 kts | 128° |
| 2026-05-05 18:50 | 53.78441 | -4.43749 | 25039 ft | 464 kts | 128° |
| 2026-05-05 18:50 | 53.76527 | -4.39401 | 25036 ft | 464 kts | 128° |
| 2026-05-05 18:50 | 53.74598 | -4.35023 | 25031 ft | 464 kts | 128° |
| 2026-05-05 18:51 | 53.72666 | -4.30652 | 25027 ft | 464 kts | 128° |
| 2026-05-05 18:51 | 53.70733 | -4.26295 | 25026 ft | 464 kts | 128° |
| 2026-05-05 18:51 | 53.68796 | -4.21941 | 25025 ft | 464 kts | 128° |
| 2026-05-05 18:51 | 53.66859 | -4.17591 | 25024 ft | 464 kts | 128° |
| 2026-05-05 18:52 | 53.64924 | -4.13242 | 25011 ft | 464 kts | 128° |
| 2026-05-05 18:52 | 53.63203 | -4.08636 | 25012 ft | 466 kts | 119° |
| 2026-05-05 18:52 | 53.61873 | -4.03659 | 25016 ft | 467 kts | 113° |
| 2026-05-05 18:52 | 53.60639 | -3.98601 | 25019 ft | 467 kts | 114° |
| 2026-05-05 18:53 | 53.59395 | -3.93557 | 25021 ft | 467 kts | 114° |
| 2026-05-05 18:53 | 53.58144 | -3.88515 | 25017 ft | 467 kts | 114° |
| 2026-05-05 18:53 | 53.56890 | -3.83482 | 25022 ft | 467 kts | 114° |
| 2026-05-05 18:53 | 53.55633 | -3.78448 | 25017 ft | 467 kts | 114° |
| 2026-05-05 18:54 | 53.54377 | -3.73418 | 25017 ft | 467 kts | 114° |
| 2026-05-05 18:54 | 53.53119 | -3.68399 | 25015 ft | 467 kts | 114° |
| 2026-05-05 18:54 | 53.51855 | -3.63370 | 25016 ft | 467 kts | 114° |
| 2026-05-05 18:54 | 53.50595 | -3.58357 | 25021 ft | 466 kts | 114° |
| 2026-05-05 18:55 | 53.49334 | -3.53342 | 25027 ft | 466 kts | 114° |
| 2026-05-05 18:55 | 53.48087 | -3.48391 | 25026 ft | 466 kts | 114° |
| 2026-05-05 18:55 | 53.46824 | -3.43384 | 25026 ft | 466 kts | 114° |
| 2026-05-05 18:55 | 53.45559 | -3.38380 | 24841 ft | 466 kts | 114° |
| 2026-05-05 18:56 | 53.44291 | -3.33392 | 24518 ft | 465 kts | 114° |
| 2026-05-05 18:56 | 53.43022 | -3.28412 | 23607 ft | 464 kts | 114° |
| 2026-05-05 18:56 | 53.41884 | -3.23353 | 22692 ft | 463 kts | 107° |
| 2026-05-05 18:56 | 53.41291 | -3.18088 | 21916 ft | 459 kts | 95° |
| 2026-05-05 18:57 | 53.41282 | -3.12775 | 21153 ft | 454 kts | 84° |
| 2026-05-05 18:57 | 53.41859 | -3.07607 | 20468 ft | 447 kts | 73° |
| 2026-05-05 18:57 | 53.42955 | -3.02838 | 19808 ft | 434 kts | 62° |
| 2026-05-05 18:57 | 53.44425 | -2.98450 | 19136 ft | 430 kts | 58° |
| 2026-05-05 18:58 | 53.45924 | -2.94126 | 18508 ft | 427 kts | 58° |
| 2026-05-05 18:58 | 53.47401 | -2.89839 | 17861 ft | 423 kts | 58° |
| 2026-05-05 18:58 | 53.48844 | -2.85635 | 17287 ft | 418 kts | 59° |
| 2026-05-05 18:58 | 53.50307 | -2.81367 | 16733 ft | 414 kts | 58° |
| 2026-05-05 18:59 | 53.51720 | -2.77256 | 16193 ft | 410 kts | 58° |
| 2026-05-05 18:59 | 53.53157 | -2.73069 | 15661 ft | 406 kts | 58° |
| 2026-05-05 18:59 | 53.54557 | -2.68984 | 15133 ft | 402 kts | 58° |
| 2026-05-05 18:59 | 53.55943 | -2.64933 | 14604 ft | 398 kts | 58° |
| 2026-05-05 19:00 | 53.57298 | -2.60960 | 14081 ft | 394 kts | 58° |
| 2026-05-05 19:00 | 53.58658 | -2.56958 | 13388 ft | 394 kts | 58° |
| 2026-05-05 19:00 | 53.60003 | -2.53000 | 12914 ft | 386 kts | 58° |
| 2026-05-05 19:00 | 53.61327 | -2.49097 | 12319 ft | 381 kts | 58° |
| 2026-05-05 19:01 | 53.62631 | -2.45242 | 11711 ft | 377 kts | 58° |
| 2026-05-05 19:01 | 53.63650 | -2.41135 | 11283 ft | 385 kts | 75° |
| 2026-05-05 19:01 | 53.64092 | -2.36718 | 10974 ft | 378 kts | 80° |
| 2026-05-05 19:01 | 53.64460 | -2.32414 | 10692 ft | 365 kts | 80° |
| 2026-05-05 19:02 | 53.64805 | -2.28254 | 10402 ft | 353 kts | 80° |
| 2026-05-05 19:02 | 53.65135 | -2.24210 | 10107 ft | 342 kts | 80° |
| 2026-05-05 19:02 | 53.65442 | -2.20345 | 9801 ft | 324 kts | 80° |
| 2026-05-05 19:02 | 53.65730 | -2.16683 | 9475 ft | 307 kts | 81° |
| 2026-05-05 19:03 | 53.66004 | -2.13197 | 9157 ft | 296 kts | 80° |
| 2026-05-05 19:03 | 53.66270 | -2.09779 | 8838 ft | 293 kts | 81° |
| 2026-05-05 19:03 | 53.66536 | -2.06385 | 8465 ft | 291 kts | 81° |
| 2026-05-05 19:03 | 53.66807 | -2.03027 | 8103 ft | 288 kts | 80° |
| 2026-05-05 19:04 | 53.67076 | -1.99698 | 7719 ft | 287 kts | 80° |
| 2026-05-05 19:04 | 53.67349 | -1.96362 | 7339 ft | 285 kts | 80° |
| 2026-05-05 19:04 | 53.67635 | -1.93075 | 7002 ft | 282 kts | 81° |
| 2026-05-05 19:04 | 53.67922 | -1.89816 | 6643 ft | 280 kts | 81° |
| 2026-05-05 19:05 | 53.68211 | -1.86572 | 6307 ft | 278 kts | 80° |
| 2026-05-05 19:05 | 53.68506 | -1.83367 | 5999 ft | 274 kts | 80° |
| 2026-05-05 19:05 | 53.68797 | -1.80209 | 5681 ft | 271 kts | 80° |
| 2026-05-05 19:05 | 53.69078 | -1.77094 | 5367 ft | 267 kts | 81° |
| 2026-05-05 19:06 | 53.69350 | -1.74085 | 5185 ft | 252 kts | 80° |
| 2026-05-05 19:06 | 53.69606 | -1.71250 | 5032 ft | 235 kts | 81° |
| 2026-05-05 19:06 | 53.69843 | -1.68576 | 4676 ft | 227 kts | 80° |
| 2026-05-05 19:06 | 53.70062 | -1.65964 | 4247 ft | 222 kts | 80° |
| 2026-05-05 19:07 | 53.70266 | -1.63405 | 3796 ft | 219 kts | 80° |
| 2026-05-05 19:07 | 53.70457 | -1.60879 | 3423 ft | 216 kts | 81° |
| 2026-05-05 19:07 | 53.70633 | -1.58372 | 3174 ft | 213 kts | 81° |
| 2026-05-05 19:07 | 53.70797 | -1.55926 | 3024 ft | 205 kts | 80° |
| 2026-05-05 19:08 | 53.70942 | -1.53610 | 3001 ft | 191 kts | 81° |
| 2026-05-05 19:08 | 53.71068 | -1.51445 | 3037 ft | 181 kts | 81° |
| 2026-05-05 19:08 | 53.71421 | -1.49465 | 3009 ft | 175 kts | 54° |
| 2026-05-05 19:08 | 53.72288 | -1.48082 | 3011 ft | 172 kts | 29° |
| 2026-05-05 19:09 | 53.73423 | -1.47537 | 3008 ft | 172 kts | 4° |
| 2026-05-05 19:09 | 53.74593 | -1.47938 | 3004 ft | 176 kts | 338° |
| 2026-05-05 19:09 | 53.75572 | -1.49184 | 3006 ft | 172 kts | 322° |
| 2026-05-05 19:09 | 53.76422 | -1.50489 | 3014 ft | 162 kts | 322° |
| 2026-05-05 19:10 | 53.77250 | -1.51752 | 2994 ft | 159 kts | 322° |
| 2026-05-05 19:10 | 53.78056 | -1.52984 | 2865 ft | 157 kts | 323° |
| 2026-05-05 19:10 | 53.78848 | -1.54194 | 2684 ft | 156 kts | 323° |
| 2026-05-05 19:10 | 53.79649 | -1.55417 | 2479 ft | 155 kts | 323° |
| 2026-05-05 19:11 | 53.80412 | -1.56589 | 2259 ft | 138 kts | 324° |
| 2026-05-05 19:11 | 53.81098 | -1.57639 | 2082 ft | 132 kts | 326° |
| 2026-05-05 19:11 | 53.81773 | -1.58670 | 1905 ft | 130 kts | 325° |
| 2026-05-05 19:11 | 53.82438 | -1.59688 | 1726 ft | 129 kts | 325° |
| 2026-05-05 19:12 | 53.83101 | -1.60702 | 1529 ft | 128 kts | 325° |
| 2026-05-05 19:12 | 53.83762 | -1.61716 | 1337 ft | 128 kts | 324° |
| 2026-05-05 19:12 | 53.84419 | -1.62731 | 1156 ft | 128 kts | 323° |
| 2026-05-05 19:12 | 53.85076 | -1.63740 | 971 ft | 128 kts | 325° |
| 2026-05-05 19:13 | 53.85726 | -1.64744 | 810 ft | 129 kts | 324° |
| 2026-05-05 19:13 | 53.86446 | -1.65827 | 1401 ft | 143 kts | 324° |
| 2026-05-05 19:13 | 53.87216 | -1.66910 | 2156 ft | 149 kts | 333° |
| 2026-05-05 19:13 | 53.88260 | -1.67096 | 2434 ft | 163 kts | 20° |
| 2026-05-05 19:14 | 53.89102 | -1.65694 | 2740 ft | 189 kts | 68° |
| 2026-05-05 19:14 | 53.89101 | -1.63370 | 2988 ft | 207 kts | 104° |
| 2026-05-05 19:14 | 53.88383 | -1.61241 | 3003 ft | 211 kts | 129° |
| 2026-05-05 19:14 | 53.87238 | -1.59594 | 3020 ft | 231 kts | 139° |
| 2026-05-05 19:15 | 53.85849 | -1.57867 | 3010 ft | 256 kts | 140° |
| 2026-05-05 19:15 | 53.84396 | -1.56072 | 3007 ft | 262 kts | 141° |
| 2026-05-05 19:15 | 53.82919 | -1.54222 | 3009 ft | 265 kts | 140° |
| 2026-05-05 19:15 | 53.81451 | -1.52390 | 3003 ft | 256 kts | 140° |
| 2026-05-05 19:16 | 53.80064 | -1.50678 | 3006 ft | 239 kts | 140° |
| 2026-05-05 19:16 | 53.78734 | -1.49051 | 3009 ft | 235 kts | 140° |
| 2026-05-05 19:16 | 53.77411 | -1.47441 | 3008 ft | 229 kts | 140° |
| 2026-05-05 19:16 | 53.76565 | -1.46439 | 3006 ft | 220 kts | 143° |
| 2026-05-05 19:17 | 53.74659 | -1.45841 | 3044 ft | 210 kts | 193° |
| 2026-05-05 19:17 | 53.73803 | -1.46541 | 3004 ft | 206 kts | 223° |
| 2026-05-05 19:17 | 53.73203 | -1.48595 | 3005 ft | 195 kts | 272° |
| 2026-05-05 19:17 | 53.73666 | -1.50525 | 2999 ft | 168 kts | 325° |
| 2026-05-05 19:18 | 53.74702 | -1.51052 | 3026 ft | 154 kts | 0° |
| 2026-05-05 19:18 | 53.75751 | -1.51336 | 3024 ft | 152 kts | 352° |
| 2026-05-05 19:18 | 53.76765 | -1.51876 | 3014 ft | 155 kts | 340° |
| 2026-05-05 19:18 | 53.77696 | -1.52801 | 2912 ft | 156 kts | 330° |
| 2026-05-05 19:19 | 53.78560 | -1.53908 | 2741 ft | 156 kts | 327° |
| 2026-05-05 19:19 | 53.79388 | -1.55084 | 2543 ft | 155 kts | 325° |
| 2026-05-05 19:19 | 53.80178 | -1.56259 | 2327 ft | 143 kts | 324° |
| 2026-05-05 19:19 | 53.80888 | -1.57332 | 2138 ft | 134 kts | 326° |
| 2026-05-05 19:20 | 53.81568 | -1.58367 | 1957 ft | 130 kts | 326° |
| 2026-05-05 19:20 | 53.82233 | -1.59380 | 1780 ft | 128 kts | 325° |
| 2026-05-05 19:20 | 53.82895 | -1.60388 | 1599 ft | 128 kts | 326° |
| 2026-05-05 19:20 | 53.83553 | -1.61409 | 1401 ft | 127 kts | 324° |
| 2026-05-05 19:21 | 53.84205 | -1.62417 | 1213 ft | 126 kts | 326° |
| 2026-05-05 19:21 | 53.84860 | -1.63408 | 1020 ft | 127 kts | 323° |
| 2026-05-05 19:21 | 53.85512 | -1.64412 | 840 ft | 126 kts | 325° |
| 2026-05-05 19:21 | 53.86159 | -1.65397 | 686 ft | 123 kts | 323° |
| 2026-05-05 19:22 | 53.86693 | -1.66213 | 667 ft | 84 kts | 317° |
| 2026-05-05 19:22 | 53.87003 | -1.66690 | 675 ft | 44 kts | 317° |
| 2026-05-05 19:22 | 53.87194 | -1.66979 | 687 ft | 18 kts | 327° |
| 2026-05-05 19:22 | 53.87315 | -1.66993 | 689 ft | 17 kts | 3° |
| 2026-05-05 19:23 | 53.87398 | -1.67033 | 689 ft | 12 kts | 302° |
| 2026-05-05 19:23 | 53.87379 | -1.67147 | 688 ft | 11 kts | 224° |
| 2026-05-05 19:23 | 53.87311 | -1.67166 | 684 ft | 12 kts | 137° |
| 2026-05-05 19:23 | 53.87239 | -1.67056 | 682 ft | 15 kts | 137° |
| 2026-05-05 19:24 | 53.87157 | -1.66930 | 685 ft | 18 kts | 138° |
| 2026-05-05 19:24 | 53.87054 | -1.66771 | 679 ft | 22 kts | 137° |
| 2026-05-05 19:24 | 53.86962 | -1.66628 | 672 ft | 11 kts | 131° |
| 2026-05-05 19:24 | 53.86985 | -1.66528 | 673 ft | 9 kts | 47° |
| 2026-05-05 19:25 | 53.86989 | -1.66419 | 672 ft | 12 kts | 113° |
| 2026-05-05 19:25 | 53.86940 | -1.66281 | 666 ft | 17 kts | 132° |
| 2026-05-05 19:25 | 53.86857 | -1.66151 | 667 ft | 11 kts | 136° |
| 2026-05-05 19:25 | 53.86818 | -1.66076 | 666 ft | 7 kts | 110° |
| 2026-05-05 19:26 | 53.86814 | -1.65979 | 666 ft | 10 kts | 92° |
| 2026-05-05 19:26 | 53.86812 | -1.65846 | 665 ft | 12 kts | 91° |
| 2026-05-05 19:26 | 53.86817 | -1.65734 | 665 ft | 8 kts | 85° |
| 2026-05-05 19:26 | 53.86842 | -1.65692 | 665 ft | 4 kts | 7° |
| 2026-05-05 19:27 | 53.86869 | -1.65690 | 665 ft | 3 kts | 1° |
| 2026-05-05 19:27 | 53.86879 | -1.65690 | 665 ft | 0 kts | 1° |